Time;durP1;ratioP1;P1;durP2;ratioP2;P2;SDS_P1;SDS_P2;PMS_P1;PMS_P2;Temp;Humidity;BMP_temperature;BMP_pressure;BME280_temperature;BME280_humidity;BME280_pressure;Samples;Min_cycle;Max_cycle;Signal;HPM_P1;HPM_P2
2022/09/17 00:01:25;;;;;;;8.85;5.75;;;;;;;13.42;74.39;99319.48;1516328;93;21504;-67
2022/09/17 00:03:55;;;;;;;12.15;6.28;;;;;;;13.40;74.44;99322.78;1548248;91;21033;-67
2022/09/17 00:06:23;;;;;;;7.10;5.65;;;;;;;13.36;74.46;99321.46;1544329;93;21121;-67
2022/09/17 00:08:52;;;;;;;12.30;6.65;;;;;;;13.33;74.56;99331.08;1544142;91;21086;-67
2022/09/17 00:11:24;;;;;;;9.20;6.33;;;;;;;13.29;74.68;99320.45;1546023;91;21848;-68
2022/09/17 00:13:52;;;;;;;8.50;6.42;;;;;;;13.30;74.81;99327.41;1544917;91;21117;-68
2022/09/17 00:16:36;;;;;;;8.05;6.40;;;;;;;13.33;74.94;99317.82;1545043;91;21103;-68
2022/09/17 00:19:04;;;;;;;10.45;6.47;;;;;;;13.37;75.04;99314.33;1534336;91;21021;-68
2022/09/17 00:21:32;;;;;;;8.20;6.42;;;;;;;13.40;75.08;99308.19;1548986;91;21001;-69
2022/09/17 00:24:01;;;;;;;7.67;6.00;;;;;;;13.44;75.19;99313.52;1545025;91;21863;-69
2022/09/17 00:26:28;;;;;;;11.57;6.12;;;;;;;13.48;75.36;99295.42;1544492;93;21009;-68
2022/09/17 00:28:56;;;;;;;12.43;6.60;;;;;;;13.51;75.49;99291.61;1543980;91;21080;-67
2022/09/17 00:31:24;;;;;;;10.30;6.37;;;;;;;13.54;75.56;99284.66;1548989;91;21147;-68
2022/09/17 00:33:51;;;;;;;10.23;6.42;;;;;;;13.57;75.62;99279.84;1551956;91;21069;-68
2022/09/17 00:36:19;;;;;;;10.10;6.33;;;;;;;13.59;75.69;99284.47;1552069;91;21843;-68
2022/09/17 00:38:51;;;;;;;8.60;6.20;;;;;;;13.60;75.68;99282.64;1545026;91;21085;-67
2022/09/17 00:41:19;;;;;;;9.45;6.70;;;;;;;13.58;75.69;99270.88;1545031;91;21057;-67
2022/09/17 00:43:52;;;;;;;10.53;6.30;;;;;;;13.61;75.71;99271.06;1548159;91;21049;-67
2022/09/17 00:46:36;;;;;;;11.80;6.67;;;;;;;13.61;75.72;99261.77;1537583;91;21117;-67
2022/09/17 00:49:13;;;;;;;13.25;7.00;;;;;;;13.63;75.71;99262.43;1542679;91;22038;-68
2022/09/17 00:51:44;;;;;;;7.47;6.67;;;;;;;13.64;75.54;99266.73;1533809;91;21465;-67
2022/09/17 00:54:11;;;;;;;7.55;6.80;;;;;;;13.62;75.42;99258.95;1545357;91;21021;-68
2022/09/17 00:56:39;;;;;;;10.32;7.03;;;;;;;13.59;75.41;99267.22;1545025;92;20958;-68
2022/09/17 00:59:07;;;;;;;9.30;7.08;;;;;;;13.57;75.47;99262.59;1544453;91;21126;-69
2022/09/17 01:01:35;;;;;;;8.90;6.58;;;;;;;13.53;75.50;99263.94;1544522;91;21904;-67
2022/09/17 01:04:03;;;;;;;8.95;6.42;;;;;;;13.51;75.52;99265.94;1554757;91;21097;-68
2022/09/17 01:07:02;;;;;;;8.55;6.97;;;;;;;13.48;75.32;99260.94;1544713;91;21057;-68
2022/09/17 01:10:11;;;;;;;8.38;7.05;;;;;;;13.44;75.30;99264.94;1527809;91;21082;-68
2022/09/17 01:12:55;;;;;;;7.60;6.70;;;;;;;13.35;75.57;99264.11;1552349;91;21061;-67
2022/09/17 01:15:48;;;;;;;7.92;7.08;;;;;;;13.29;75.92;99270.56;1547229;91;22144;-68
2022/09/17 01:18:32;;;;;;;9.10;7.00;;;;;;;13.30;76.23;99266.92;1544444;91;21498;-68
2022/09/17 01:21:38;;;;;;;11.65;7.35;;;;;;;13.33;76.37;99262.13;1544331;91;21065;-68
2022/09/17 01:24:19;;;;;;;10.98;7.12;;;;;;;13.37;76.39;99261.29;1538373;92;21064;-68
2022/09/17 01:27:17;;;;;;;9.30;7.00;;;;;;;13.39;76.54;99267.25;1544831;91;21136;-68
2022/09/17 01:30:30;;;;;;;12.25;6.72;;;;;;;13.41;76.74;99281.16;1555750;91;22041;-68
2022/09/17 01:33:33;;;;;;;8.88;7.08;;;;;;;13.44;76.78;99288.31;1498779;94;21524;-67
2022/09/17 01:36:23;;;;;;;7.17;6.20;;;;;;;13.45;76.70;99277.20;1499132;94;21142;-68
2022/09/17 01:38:55;;;;;;;10.65;7.45;;;;;;;13.46;76.73;99266.92;1541592;91;21001;-68
2022/09/17 01:41:42;;;;;;;11.95;7.10;;;;;;;13.48;76.86;99264.09;1545238;91;21050;-68
2022/09/17 01:44:39;;;;;;;9.75;7.00;;;;;;;13.50;76.97;99262.92;1544744;91;21871;-69
2022/09/17 01:47:19;;;;;;;11.28;7.62;;;;;;;13.50;77.02;99264.25;1549583;91;21184;-68
2022/09/17 01:49:48;;;;;;;8.48;7.28;;;;;;;13.54;77.05;99270.06;1544945;91;21148;-69
2022/09/17 01:52:14;;;;;;;10.68;7.85;;;;;;;13.58;77.09;99271.38;1549216;91;21115;-68
2022/09/17 01:54:45;;;;;;;11.43;7.92;;;;;;;13.61;77.08;99268.41;1545077;91;21129;-67
2022/09/17 01:57:20;;;;;;;9.30;7.50;;;;;;;13.65;77.05;99269.22;1545123;91;22500;-67
2022/09/17 01:59:52;;;;;;;10.30;8.08;;;;;;;13.67;77.04;99265.06;1557048;91;21172;-69
2022/09/17 02:02:57;;;;;;;10.05;7.60;;;;;;;13.70;77.02;99266.05;1546203;91;21664;-67
2022/09/17 02:05:40;;;;;;;12.73;8.25;;;;;;;13.71;76.95;99274.36;1544786;91;21539;-69
2022/09/17 02:08:17;;;;;;;10.90;8.15;;;;;;;13.70;76.93;99278.84;1545597;91;27473;-69
2022/09/17 02:10:48;;;;;;;9.23;8.23;;;;;;;13.73;76.94;99286.95;1531095;91;22488;-68
2022/09/17 02:13:22;;;;;;;11.05;8.25;;;;;;;13.74;76.94;99286.78;1547577;91;21147;-68
2022/09/17 02:15:56;;;;;;;9.23;7.67;;;;;;;13.75;76.94;99273.84;1551622;91;21052;-69
2022/09/17 02:18:45;;;;;;;11.40;9.08;;;;;;;13.78;77.00;99274.50;1546245;91;21133;-68
2022/09/17 02:21:16;;;;;;;10.60;8.90;;;;;;;13.79;77.01;99260.22;1521606;92;21029;-68
2022/09/17 02:23:56;;;;;;;12.65;8.80;;;;;;;13.80;77.01;99269.37;1548905;91;22468;-68
2022/09/17 02:26:25;;;;;;;10.28;8.40;;;;;;;13.82;76.93;99271.35;1546590;91;21053;-68
2022/09/17 02:28:58;;;;;;;10.28;8.80;;;;;;;13.84;76.87;99266.70;1546564;91;21131;-68
2022/09/17 02:31:28;;;;;;;;;;;;;;;13.85;77.00;99268.34;1548490;91;21194;-68
2022/09/17 02:34:00;;;;;;;12.68;9.28;;;;;;;13.86;77.11;99263.86;1526290;92;20204;-68
2022/09/17 02:36:27;;;;;;;9.58;8.58;;;;;;;13.87;77.20;99272.98;1550098;91;21793;-68
2022/09/17 02:38:58;;;;;;;13.32;9.15;;;;;;;13.89;77.23;99286.08;1546205;91;21123;-68
2022/09/17 02:41:46;;;;;;;10.45;8.48;;;;;;;13.88;77.20;99293.22;1524138;91;21480;-68
2022/09/17 02:44:25;;;;;;;11.38;8.60;;;;;;;13.89;77.17;99292.21;1545719;91;21499;-68
2022/09/17 02:47:24;;;;;;;14.78;8.88;;;;;;;13.91;77.05;99294.73;1543082;91;21299;-68
2022/09/17 02:50:27;;;;;;;14.83;8.98;;;;;;;13.94;77.04;99283.75;1546095;91;21881;-69
2022/09/17 02:53:22;;;;;;;11.48;8.85;;;;;;;13.95;77.00;99288.06;1534352;91;21103;-68
2022/09/17 02:56:15;;;;;;;10.98;8.70;;;;;;;13.97;77.00;99285.56;1546309;91;21045;-68
2022/09/17 02:59:18;;;;;;;12.33;9.38;;;;;;;13.96;77.00;99274.62;1546846;91;21092;-70
2022/09/17 03:02:00;;;;;;;10.50;9.23;;;;;;;13.98;77.03;99267.80;1546114;91;21084;-70
2022/09/17 03:04:28;;;;;;;12.65;8.83;;;;;;;14.00;77.10;99271.14;1537391;91;21854;-69
2022/09/17 03:06:55;;;;;;;11.35;8.58;;;;;;;14.02;77.13;99273.95;1546154;91;21061;-68
2022/09/17 03:09:22;;;;;;;11.70;8.55;;;;;;;14.03;77.04;99276.09;1545980;91;21013;-69
2022/09/17 03:11:48;;;;;;;12.80;8.73;;;;;;;14.00;77.06;99260.02;1564646;90;21166;-68
2022/09/17 03:14:15;;;;;;;13.32;8.80;;;;;;;14.00;77.10;99265.83;1552609;91;21142;-67
2022/09/17 03:16:41;;;;;;;11.22;8.65;;;;;;;13.97;77.17;99284.73;1553793;91;21952;-68
2022/09/17 03:19:08;;;;;;;11.60;8.58;;;;;;;13.94;77.23;99284.58;1552325;90;21713;-67
2022/09/17 03:21:35;;;;;;;11.43;8.88;;;;;;;13.92;77.34;99284.44;1552299;91;21092;-68
2022/09/17 03:24:01;;;;;;;10.43;8.73;;;;;;;13.92;77.41;99289.23;1552714;91;21061;-69
2022/09/17 03:26:28;;;;;;;11.88;8.65;;;;;;;13.93;77.50;99291.39;1552867;91;21116;-68
2022/09/17 03:28:57;;;;;;;10.80;8.93;;;;;;;13.95;77.54;99288.06;1552506;90;21824;-69
2022/09/17 03:31:25;;;;;;;11.75;9.03;;;;;;;13.98;77.55;99296.51;1551022;91;21053;-69
2022/09/17 03:33:52;;;;;;;10.72;9.03;;;;;;;14.00;77.50;99297.69;1555994;91;21028;-69
2022/09/17 03:36:19;;;;;;;10.98;8.73;;;;;;;13.98;77.51;99293.02;1552579;91;21111;-68
2022/09/17 03:38:45;;;;;;;13.08;9.25;;;;;;;13.98;77.65;99299.66;1551443;90;21151;-69
2022/09/17 03:41:12;;;;;;;10.00;8.90;;;;;;;13.99;77.84;99299.52;1554220;91;21826;-68
2022/09/17 03:43:39;;;;;;;13.70;9.13;;;;;;;14.01;77.92;99302.83;1551476;90;21192;-69
2022/09/17 03:46:07;;;;;;;10.85;8.48;;;;;;;14.04;77.85;99300.32;1550152;91;21147;-70
2022/09/17 03:48:35;;;;;;;12.75;9.15;;;;;;;14.04;77.76;99299.00;1533638;91;21136;-69
2022/09/17 03:51:03;;;;;;;17.80;8.65;;;;;;;13.99;77.78;99295.53;1552109;91;21122;-69
2022/09/17 03:53:30;;;;;;;12.13;9.40;;;;;;;13.98;77.93;99285.06;1550214;91;21934;-69
2022/09/17 03:55:59;;;;;;;14.25;9.60;;;;;;;13.99;78.01;99290.70;1551921;91;21138;-69
2022/09/17 03:58:27;;;;;;;16.90;14.58;;;;;;;14.02;78.06;99293.03;1552482;91;21088;-70
2022/09/17 04:00:56;;;;;;;18.23;15.93;;;;;;;14.03;78.07;99288.05;1552507;90;21161;-70
2022/09/17 04:03:25;;;;;;;20.32;17.37;;;;;;;14.03;78.12;99289.38;1555308;91;20989;-69
2022/09/17 04:05:53;;;;;;;15.50;13.80;;;;;;;14.05;78.27;99288.70;1553281;91;21770;-67
2022/09/17 04:08:20;;;;;;;13.08;11.78;;;;;;;14.05;78.42;99283.39;1550179;89;21103;-68
2022/09/17 04:10:48;;;;;;;12.35;11.10;;;;;;;14.06;78.54;99284.22;1550200;91;21088;-68
2022/09/17 04:13:15;;;;;;;13.93;11.03;;;;;;;14.09;78.61;99280.73;1552768;90;21139;-71
2022/09/17 04:15:45;;;;;;;12.28;10.93;;;;;;;14.13;78.65;99284.70;1556344;90;21021;-71
2022/09/17 04:18:12;;;;;;;15.38;11.50;;;;;;;14.16;78.67;99289.66;1553292;90;21956;-70
2022/09/17 04:20:39;;;;;;;16.65;12.05;;;;;;;14.19;78.73;99294.64;1559986;90;21092;-70
2022/09/17 04:23:08;;;;;;;14.63;12.10;;;;;;;14.22;78.75;99291.64;1549269;91;21084;-73
2022/09/17 04:25:36;;;;;;;12.10;10.88;;;;;;;14.25;78.71;99295.27;1550806;91;21132;-74
2022/09/17 04:28:02;;;;;;;14.13;11.75;;;;;;;14.29;78.75;99284.64;1554086;90;21082;-68
2022/09/17 04:30:29;;;;;;;12.07;10.88;;;;;;;14.31;78.79;99283.14;1499517;92;22340;-68
2022/09/17 04:32:56;;;;;;;12.93;10.98;;;;;;;14.33;78.85;99281.96;1543288;90;21513;-71
2022/09/17 04:35:22;;;;;;;13.70;10.63;;;;;;;14.37;78.91;99283.76;1559053;90;21089;-71
2022/09/17 04:37:56;;;;;;;13.68;10.58;;;;;;;14.41;78.99;99280.28;1553744;91;21123;-71
2022/09/17 04:40:23;;;;;;;;;;;;;;;14.44;79.14;99278.59;1527886;92;21585;-71
2022/09/17 04:42:55;;;;;;;13.65;10.60;;;;;;;14.49;79.28;99284.27;1552197;91;22433;-72
2022/09/17 04:45:22;;;;;;;11.15;10.05;;;;;;;14.52;79.35;99281.25;1552535;90;21570;-70
2022/09/17 04:47:52;;;;;;;14.47;10.95;;;;;;;14.57;79.38;99286.38;1551393;90;21045;-70
2022/09/17 04:50:19;;;;;;;17.65;10.50;;;;;;;14.63;79.42;99282.19;1551598;91;21630;-71
2022/09/17 04:52:46;;;;;;;13.75;11.18;;;;;;;14.68;79.53;99284.33;1562544;90;21035;-68
2022/09/17 04:55:15;;;;;;;13.88;10.40;;;;;;;14.74;79.54;99288.94;1553140;91;22599;-74
2022/09/17 04:57:51;;;;;;;12.10;10.90;;;;;;;14.77;79.49;99289.43;1552001;91;21089;-69
2022/09/17 05:00:19;;;;;;;15.90;10.58;;;;;;;14.78;79.46;99287.09;1552184;91;21611;-68
2022/09/17 05:02:48;;;;;;;14.10;10.85;;;;;;;14.82;79.50;99284.91;1552548;91;21072;-70
2022/09/17 05:05:15;;;;;;;12.85;10.43;;;;;;;14.86;79.58;99288.38;1551895;91;21027;-71
2022/09/17 05:07:42;;;;;;;13.08;10.85;;;;;;;14.91;79.68;99297.14;1550869;90;21787;-72
2022/09/17 05:10:09;;;;;;;14.30;10.72;;;;;;;14.94;79.74;99295.95;1552029;90;21028;-71
2022/09/17 05:12:37;;;;;;;13.43;10.30;;;;;;;14.97;79.70;99305.75;1543684;91;21543;-73
2022/09/17 05:15:05;;;;;;;13.45;10.18;;;;;;;15.00;79.63;99312.04;1544857;91;21087;-70
2022/09/17 05:17:32;;;;;;;13.62;10.72;;;;;;;15.03;79.52;99316.17;1543489;90;21634;-70
2022/09/17 05:19:59;;;;;;;14.68;10.15;;;;;;;15.05;79.45;99314.16;1545383;91;22344;-71
2022/09/17 05:22:25;;;;;;;14.35;10.15;;;;;;;15.08;79.42;99312.50;1547027;91;21069;-71
2022/09/17 05:24:52;;;;;;;12.60;10.68;;;;;;;15.10;79.41;99317.13;1546575;91;20994;-69
2022/09/17 05:27:19;;;;;;;12.37;10.63;;;;;;;15.13;79.37;99316.27;1551363;91;21155;-70
2022/09/17 05:29:48;;;;;;;12.15;10.98;;;;;;;15.13;79.25;99306.95;1546291;91;21088;-70
2022/09/17 05:32:15;;;;;;;14.65;11.00;;;;;;;15.12;79.23;99303.97;1547831;91;22253;-69
2022/09/17 05:34:42;;;;;;;14.60;11.03;;;;;;;15.15;79.26;99312.09;1545668;91;21065;-71
2022/09/17 05:37:10;;;;;;;11.85;10.58;;;;;;;15.16;79.25;99305.30;1545623;91;21060;-70
2022/09/17 05:39:36;;;;;;;13.20;10.93;;;;;;;15.16;79.09;99301.81;1545909;91;21077;-70
2022/09/17 05:42:04;;;;;;;10.93;9.80;;;;;;;15.17;79.05;99310.11;1546106;91;21013;-70
2022/09/17 05:44:31;;;;;;;13.25;10.32;;;;;;;15.20;79.06;99310.25;1540551;91;21718;-71
2022/09/17 05:46:58;;;;;;;15.30;10.68;;;;;;;15.22;78.97;99313.55;1544858;91;21096;-70
2022/09/17 05:49:25;;;;;;;13.72;10.82;;;;;;;15.25;78.82;99317.17;1547354;91;21091;-69
2022/09/17 05:51:51;;;;;;;12.00;10.58;;;;;;;15.27;78.58;99321.34;1541613;91;21173;-70
2022/09/17 05:54:17;;;;;;;15.30;10.63;;;;;;;15.30;78.56;99313.50;1546670;91;21188;-69
2022/09/17 05:56:44;;;;;;;12.35;10.45;;;;;;;15.37;78.57;99319.77;1546828;91;22004;-70
2022/09/17 05:59:11;;;;;;;11.48;10.25;;;;;;;15.41;78.48;99325.88;1546753;92;21224;-70
2022/09/17 06:01:37;;;;;;;13.53;10.35;;;;;;;15.43;78.30;99330.50;1545991;91;21091;-69
2022/09/17 06:04:04;;;;;;;12.58;10.35;;;;;;;15.45;78.18;99327.19;1546481;92;21017;-70
2022/09/17 06:06:30;;;;;;;13.75;9.60;;;;;;;15.49;78.14;99330.81;1545735;91;21017;-70
2022/09/17 06:09:00;;;;;;;11.05;9.63;;;;;;;15.52;78.08;99327.78;1545487;91;21831;-71
2022/09/17 06:11:27;;;;;;;11.40;9.75;;;;;;;15.56;77.97;99332.59;1546830;91;21022;-70
2022/09/17 06:13:54;;;;;;;11.22;9.70;;;;;;;15.59;77.86;99346.03;1552312;91;21599;-71
2022/09/17 06:16:22;;;;;;;11.03;9.88;;;;;;;15.59;77.60;99344.20;1553646;91;21155;-71
2022/09/17 06:18:51;;;;;;;10.70;9.60;;;;;;;15.59;77.50;99344.70;1561355;90;21060;-71
2022/09/17 06:21:20;;;;;;;10.78;9.23;;;;;;;15.58;77.40;99342.55;1552517;91;22499;-70
2022/09/17 06:23:49;;;;;;;11.88;10.32;;;;;;;15.57;77.27;99345.39;1552575;91;21065;-70
2022/09/17 06:26:15;;;;;;;12.75;10.00;;;;;;;15.56;77.26;99351.72;1551027;90;21061;-71
2022/09/17 06:28:42;;;;;;;13.72;10.10;;;;;;;15.55;77.30;99358.06;1544499;91;21127;-71
2022/09/17 06:31:09;;;;;;;13.95;10.40;;;;;;;15.55;77.42;99356.22;1552782;91;21072;-70
2022/09/17 06:33:36;;;;;;;11.40;10.20;;;;;;;15.57;77.53;99366.69;1554052;91;21762;-70
2022/09/17 06:36:07;;;;;;;12.43;10.20;;;;;;;15.55;77.54;99378.02;1552369;91;21447;-73
2022/09/17 06:38:35;;;;;;;12.45;10.45;;;;;;;15.53;77.72;99381.34;1555146;91;21032;-70
2022/09/17 06:41:02;;;;;;;12.55;10.23;;;;;;;15.51;77.82;99386.02;1552528;91;21104;-70
2022/09/17 06:43:28;;;;;;;12.70;10.82;;;;;;;15.49;77.83;99376.05;1552107;91;21424;-71
2022/09/17 06:46:01;;;;;;;17.48;10.80;;;;;;;15.49;78.02;99381.38;1552723;90;22383;-70
2022/09/17 06:48:29;;;;;;;14.15;11.53;;;;;;;15.51;78.21;99384.69;1529518;91;21027;-70
2022/09/17 06:51:03;;;;;;;13.75;11.65;;;;;;;15.51;78.33;99386.84;1554291;90;21079;-70
2022/09/17 06:53:31;;;;;;;14.13;10.88;;;;;;;15.53;78.55;99385.33;1552503;91;21036;-70
2022/09/17 06:55:58;;;;;;;14.85;10.90;;;;;;;15.54;78.63;99387.84;1552547;91;21021;-69
2022/09/17 06:58:25;;;;;;;12.43;9.88;;;;;;;15.56;78.51;99386.33;1552520;91;21917;-69
2022/09/17 07:00:54;;;;;;;11.75;10.35;;;;;;;15.51;78.07;99386.02;1552493;91;21123;-70
2022/09/17 07:03:21;;;;;;;11.15;9.58;;;;;;;15.49;77.92;99386.70;1522952;92;21059;-72
2022/09/17 07:05:50;;;;;;;11.03;9.40;;;;;;;15.49;77.87;99390.19;1552888;90;21420;-73
2022/09/17 07:08:16;;;;;;;11.12;8.30;;;;;;;15.48;77.75;99382.39;1555712;90;21127;-69
2022/09/17 07:10:43;;;;;;;7.90;7.10;;;;;;;15.50;77.61;99377.70;1552879;91;21928;-71
2022/09/17 07:13:10;;;;;;;11.00;7.70;;;;;;;15.50;77.16;99369.22;1546687;91;21140;-70
2022/09/17 07:15:38;;;;;;;8.90;7.50;;;;;;;15.51;77.05;99368.72;1545871;91;21126;-72
2022/09/17 07:18:09;;;;;;;7.83;7.03;;;;;;;15.52;76.94;99365.05;1541321;91;21690;-71
2022/09/17 07:20:36;;;;;;;8.35;7.28;;;;;;;15.52;76.80;99363.21;1543242;92;21089;-71
2022/09/17 07:23:02;;;;;;;8.18;7.20;;;;;;;15.53;76.75;99358.71;1546564;91;21803;-72
2022/09/17 07:25:29;;;;;;;10.08;7.70;;;;;;;15.58;76.79;99355.03;1547082;91;21035;-71
2022/09/17 07:27:56;;;;;;;8.80;7.85;;;;;;;15.61;76.86;99349.38;1546945;91;21069;-70
2022/09/17 07:30:23;;;;;;;8.90;7.70;;;;;;;15.65;77.09;99350.69;1546208;91;21551;-70
2022/09/17 07:32:50;;;;;;;11.63;7.87;;;;;;;15.70;77.23;99349.12;1545923;91;21611;-70
2022/09/17 07:35:17;;;;;;;11.43;8.28;;;;;;;15.74;77.27;99353.09;1546719;91;22013;-71
2022/09/17 07:37:44;;;;;;;9.43;7.47;;;;;;;15.78;77.17;99356.22;1546538;91;21416;-69
2022/09/17 07:40:11;;;;;;;12.37;8.18;;;;;;;15.82;77.04;99354.84;1546217;92;21103;-71
2022/09/17 07:42:37;;;;;;;10.43;8.25;;;;;;;15.83;76.93;99357.02;1549476;91;21047;-75
2022/09/17 07:45:05;;;;;;;9.95;8.00;;;;;;;15.81;76.94;99353.19;1548168;91;21030;-71
2022/09/17 07:47:34;;;;;;;8.03;7.17;;;;;;;15.80;77.07;99354.70;1546145;92;22487;-70
2022/09/17 07:50:02;;;;;;;9.33;7.00;;;;;;;15.81;76.91;99348.36;1519814;91;21209;-71
2022/09/17 07:52:29;;;;;;;9.93;7.22;;;;;;;15.80;76.47;99352.86;1546273;91;21068;-71
2022/09/17 07:54:55;;;;;;;9.35;7.35;;;;;;;15.81;76.25;99351.85;1546380;91;21068;-71
2022/09/17 07:57:22;;;;;;;8.15;7.35;;;;;;;15.82;76.21;99350.02;1546124;91;21006;-71
2022/09/17 07:59:49;;;;;;;8.63;7.72;;;;;;;15.86;76.43;99345.50;1532548;91;23015;-74
2022/09/17 08:02:16;;;;;;;8.45;7.62;;;;;;;15.92;76.60;99345.26;1546322;91;21573;-70
2022/09/17 08:04:43;;;;;;;10.10;8.10;;;;;;;15.96;76.78;99338.08;1546120;91;21093;-69
2022/09/17 08:07:12;;;;;;;9.43;7.92;;;;;;;16.03;76.92;99336.34;1546550;91;21008;-71
2022/09/17 08:09:39;;;;;;;9.43;7.85;;;;;;;16.08;76.85;99337.12;1545399;92;21065;-70
2022/09/17 08:12:07;;;;;;;10.80;8.40;;;;;;;16.12;76.86;99341.59;1545871;91;21894;-70
2022/09/17 08:14:33;;;;;;;10.50;8.35;;;;;;;16.17;76.96;99340.52;1545926;91;21165;-70
2022/09/17 08:17:00;;;;;;;11.73;8.35;;;;;;;16.19;77.04;99337.16;1553318;91;21109;-73
2022/09/17 08:19:28;;;;;;;9.55;8.00;;;;;;;16.21;77.19;99341.80;1546857;91;21072;-69
2022/09/17 08:21:55;;;;;;;9.03;7.80;;;;;;;16.23;77.27;99345.95;1550212;91;21559;-70
2022/09/17 08:24:21;;;;;;;10.20;7.80;;;;;;;16.29;77.39;99346.54;1552532;90;22480;-70
2022/09/17 08:26:49;;;;;;;9.80;8.00;;;;;;;16.31;77.42;99340.55;1546398;91;20977;-70
2022/09/17 08:29:15;;;;;;;9.25;8.08;;;;;;;16.35;77.42;99342.33;1546619;91;21096;-70
2022/09/17 08:31:41;;;;;;;9.73;7.47;;;;;;;16.34;77.41;99341.18;1546463;91;21088;-70
2022/09/17 08:34:09;;;;;;;9.23;6.90;;;;;;;16.33;77.26;99339.53;1549458;91;21076;-70
2022/09/17 08:36:37;;;;;;;10.10;6.90;;;;;;;16.27;76.59;99337.91;1543198;91;21068;-69
2022/09/17 08:39:04;;;;;;;10.35;7.42;;;;;;;16.26;76.22;99350.09;1547026;91;21104;-70
2022/09/17 08:41:43;;;;;;;12.23;7.62;;;;;;;16.23;75.64;99346.47;1547376;91;21064;-68
2022/09/17 08:44:25;;;;;;;10.53;7.72;;;;;;;16.19;75.42;99341.98;1546581;91;21585;-69
2022/09/17 08:47:29;;;;;;;9.03;7.97;;;;;;;16.16;75.44;99338.87;1545607;91;21024;-73
2022/09/17 08:49:59;;;;;;;10.58;7.67;;;;;;;16.13;75.49;99341.41;1528396;91;21916;-69
2022/09/17 08:52:47;;;;;;;10.50;7.67;;;;;;;16.07;75.42;99333.31;1546173;91;21579;-70
2022/09/17 08:55:54;;;;;;;12.63;8.15;;;;;;;15.99;75.27;99334.21;1535369;91;21431;-71
2022/09/17 08:58:55;;;;;;;9.23;7.87;;;;;;;15.95;75.31;99341.75;1453662;96;21138;-70
2022/09/17 09:01:59;;;;;;;9.98;7.53;;;;;;;15.89;75.31;99329.15;1455286;96;21052;-69
2022/09/17 09:04:43;;;;;;;9.15;8.00;;;;;;;15.85;75.48;99318.55;1544587;92;22999;-69
2022/09/17 09:07:20;;;;;;;10.10;7.28;;;;;;;15.76;75.26;99311.64;1546560;91;21077;-69
2022/09/17 09:10:04;;;;;;;8.30;7.45;;;;;;;15.66;75.30;99321.22;1545803;92;21180;-69
2022/09/17 09:12:33;;;;;;;10.60;7.67;;;;;;;15.59;75.52;99333.55;1549355;90;21014;-71
2022/09/17 09:15:04;;;;;;;11.97;8.60;;;;;;;15.51;75.66;99321.64;1552429;91;21150;-68
2022/09/17 09:17:39;;;;;;;8.78;7.87;;;;;;;15.46;75.99;99317.38;1553782;91;21836;-69
2022/09/17 09:20:15;;;;;;;11.90;10.35;;;;;;;15.45;76.39;99317.05;1552581;92;21515;-70
2022/09/17 09:22:50;;;;;;;12.63;10.93;;;;;;;15.40;76.41;99311.42;1552240;92;21036;-68
2022/09/17 09:25:25;;;;;;;14.07;12.45;;;;;;;15.35;76.54;99311.14;1563245;90;21057;-69
2022/09/17 09:28:28;;;;;;;13.98;12.58;;;;;;;15.35;76.68;99309.81;1552180;92;21096;-68
2022/09/17 09:31:13;;;;;;;18.60;10.85;;;;;;;15.35;76.78;99315.14;1551806;92;21884;-68
2022/09/17 09:33:42;;;;;;;12.30;10.80;;;;;;;15.34;76.91;99309.46;1530884;91;21094;-69
2022/09/17 09:36:20;;;;;;;10.53;9.43;;;;;;;15.33;77.04;99307.81;1565175;91;21138;-69
2022/09/17 09:38:50;;;;;;;10.18;8.90;;;;;;;15.31;77.15;99302.67;1549912;92;21068;-69
2022/09/17 09:41:39;;;;;;;13.85;9.38;;;;;;;15.31;77.29;99304.00;1554215;90;21043;-69
2022/09/17 09:44:11;;;;;;;10.48;9.03;;;;;;;15.33;77.56;99299.33;1552709;91;22476;-69
2022/09/17 09:47:07;;;;;;;11.00;9.68;;;;;;;15.35;77.73;99298.67;1552405;92;21119;-67
2022/09/17 09:50:00;;;;;;;10.40;9.40;;;;;;;15.33;77.89;99297.17;1552478;91;21081;-69
2022/09/17 09:52:42;;;;;;;9.53;8.58;;;;;;;15.30;78.08;99306.34;1552493;92;21096;-69
2022/09/17 09:55:42;;;;;;;10.13;8.40;;;;;;;15.28;78.25;99311.02;1551624;92;21013;-70
2022/09/17 09:58:21;;;;;;;10.18;8.23;;;;;;;15.23;78.37;99309.88;1557384;90;21494;-70
2022/09/17 10:00:48;;;;;;;8.33;7.45;;;;;;;15.24;78.84;99308.37;1539660;92;21078;-70
2022/09/17 10:03:21;;;;;;;9.43;8.33;;;;;;;15.24;78.96;99310.20;1552158;92;21135;-70
2022/09/17 10:06:00;;;;;;;8.68;7.40;;;;;;;15.22;79.11;99310.39;1552585;92;21470;-70
2022/09/17 10:08:30;;;;;;;7.70;6.90;;;;;;;15.22;79.31;99306.91;1552479;91;21131;-68
2022/09/17 10:11:12;;;;;;;10.43;7.22;;;;;;;15.20;79.40;99316.39;1552285;91;21762;-69
2022/09/17 10:13:39;;;;;;;7.65;6.80;;;;;;;15.19;79.41;99317.41;1541337;91;21115;-69
2022/09/17 10:16:24;;;;;;;8.93;7.45;;;;;;;15.17;79.49;99312.77;1547411;91;21151;-68
2022/09/17 10:19:12;;;;;;;8.43;7.55;;;;;;;15.22;79.72;99316.22;1546057;92;21070;-69
2022/09/17 10:21:41;;;;;;;8.00;7.15;;;;;;;15.26;79.87;99309.05;1546951;91;21487;-70
2022/09/17 10:24:25;;;;;;;8.98;7.50;;;;;;;15.28;79.89;99304.88;1545971;92;21867;-69
2022/09/17 10:27:01;;;;;;;9.05;7.53;;;;;;;15.29;79.97;99299.37;1546728;92;21071;-69
2022/09/17 10:29:28;;;;;;;8.93;8.03;;;;;;;15.30;80.11;99302.35;1528415;92;21072;-70
2022/09/17 10:31:56;;;;;;;9.78;8.48;;;;;;;15.28;80.09;99300.88;1540930;91;21065;-69
2022/09/17 10:34:26;;;;;;;9.33;8.40;;;;;;;15.24;80.17;99299.06;1546172;91;21084;-70
2022/09/17 10:36:54;;;;;;;11.25;9.20;;;;;;;15.23;80.29;99302.73;1545668;92;21749;-69
2022/09/17 10:39:47;;;;;;;10.68;8.93;;;;;;;15.24;80.50;99298.23;1545374;92;21022;-69
2022/09/17 10:42:16;;;;;;;10.55;9.00;;;;;;;15.26;80.62;99300.24;1544806;91;21069;-71
2022/09/17 10:45:02;;;;;;;10.60;8.80;;;;;;;15.25;80.62;99294.09;1539078;91;21061;-69
2022/09/17 10:47:33;;;;;;;9.48;8.58;;;;;;;15.23;80.50;99300.58;1539782;91;21081;-68
2022/09/17 10:50:19;;;;;;;10.63;8.73;;;;;;;15.15;80.39;99300.98;1541242;91;21865;-71
2022/09/17 10:52:51;;;;;;;9.88;8.88;;;;;;;15.12;80.50;99299.16;1546035;91;21627;-74
2022/09/17 10:55:34;;;;;;;9.55;8.65;;;;;;;15.12;80.64;99293.84;1547308;91;21551;-69
2022/09/17 10:58:09;;;;;;;8.30;6.20;;;;;;;15.14;80.80;99289.98;1546326;92;21021;-70
2022/09/17 11:01:00;;;;;;;11.12;8.55;;;;;;;15.11;80.80;99288.20;1546253;92;21087;-70
2022/09/17 11:04:05;;;;;;;8.38;7.55;;;;;;;15.05;80.87;99287.06;1548459;91;22538;-70
2022/09/17 11:07:23;;;;;;;10.60;8.58;;;;;;;15.05;81.17;99276.93;1526300;91;20937;-70
2022/09/17 11:09:56;;;;;;;9.20;8.30;;;;;;;15.01;81.29;99268.99;1546528;92;21120;-73
2022/09/17 11:12:57;;;;;;;8.93;8.03;;;;;;;15.02;81.53;99274.63;1547686;91;21053;-72
2022/09/17 11:15:44;;;;;;;9.53;7.78;;;;;;;15.04;81.64;99276.61;1534505;93;21017;-69
2022/09/17 11:18:25;;;;;;;9.03;8.18;;;;;;;15.03;81.63;99275.78;1530185;93;21825;-69
2022/09/17 11:21:19;;;;;;;9.15;8.18;;;;;;;15.00;81.70;99272.66;1547958;89;21013;-69
2022/09/17 11:24:24;;;;;;;10.60;8.45;;;;;;;14.96;81.82;99270.87;1544523;93;21358;-69
2022/09/17 11:27:05;;;;;;;9.28;8.35;;;;;;;14.90;82.04;99264.91;1547441;92;21079;-70
2022/09/17 11:30:01;;;;;;;9.33;8.20;;;;;;;14.86;82.30;99264.45;1544422;92;21572;-71
2022/09/17 11:33:01;;;;;;;9.28;8.35;;;;;;;14.88;82.54;99261.11;1544200;91;22802;-70
2022/09/17 11:35:47;;;;;;;9.18;8.23;;;;;;;14.89;82.72;99251.30;1539466;92;21053;-70
2022/09/17 11:38:43;;;;;;;8.80;8.00;;;;;;;14.88;82.82;99258.95;1529278;92;21012;-70
2022/09/17 11:41:22;;;;;;;10.08;7.70;;;;;;;14.89;82.96;99256.11;1546463;91;21064;-70
2022/09/17 11:44:25;;;;;;;10.70;8.18;;;;;;;14.91;83.01;99251.12;1544360;91;21090;-70
2022/09/17 11:47:15;;;;;;;8.95;7.28;;;;;;;14.91;83.00;99243.97;1545722;91;21984;-70
2022/09/17 11:49:58;;;;;;;9.23;7.33;;;;;;;14.88;82.97;99242.50;1532127;91;21084;-70
2022/09/17 11:52:36;;;;;;;9.98;7.30;;;;;;;14.84;82.82;99243.02;1544594;93;21785;-70
2022/09/17 11:55:32;;;;;;;8.73;7.35;;;;;;;14.81;82.87;99240.72;1545070;93;21025;-70
2022/09/17 11:58:03;;;;;;;9.63;7.85;;;;;;;14.82;82.89;99243.20;1544936;91;21618;-68
2022/09/17 12:00:32;;;;;;;8.05;6.95;;;;;;;14.83;82.88;99230.73;1541095;92;21845;-69